Address 0x1d56556f643bc2b3591046ab87ff852e76e75587 11

 
Txn Hash Method
Block
From
To
Value [Txn Fee]
0xe6dd9bf8caba20e33b17bf031ce1844026128cac3e9a2cdc79e305f76a0300bdSwap Exact Input...2230047792024-06-18 2:35:094 hrs 30 mins ago0x1d56556f643bc2b3591046ab87ff852e76e75587OUT 0x22d0fdabd92b6bca3a0f541730f9a81a8b1a36570 ETH0.00000993 0.037996
0x1fc07bcffdea26ec3108730524c388b8fccc68a8f24ca9068c7b934065684e9fSwap Exact Input...2229847012024-06-18 1:10:475 hrs 54 mins ago0x1d56556f643bc2b3591046ab87ff852e76e75587OUT 0x22d0fdabd92b6bca3a0f541730f9a81a8b1a36570 ETH0.00000295 0.010018
0xf3c0c2ad65b625f5669a264e554499fcd5a47ade40e9c6597474c6fda0528c85Swap Exact Input...2229690622024-06-18 0:04:307 hrs ago0x1d56556f643bc2b3591046ab87ff852e76e75587OUT 0x22d0fdabd92b6bca3a0f541730f9a81a8b1a36570 ETH0.00000228 0.01
0x3ced4a0f16e372d90dee0a02d0a59ac47f246b89910083dad3dfc396acf8c840Swap Exact Input...2229532172024-06-17 22:58:158 hrs 6 mins ago0x1d56556f643bc2b3591046ab87ff852e76e75587OUT 0x22d0fdabd92b6bca3a0f541730f9a81a8b1a36570 ETH0.00000263 0.01
0xbe978cfd4ddf2faa36cb13ac2ed19d0e0f4c71dc44215757522e06d913241b33Swap Exact Input...2229373802024-06-17 21:52:009 hrs 13 mins ago0x1d56556f643bc2b3591046ab87ff852e76e75587OUT 0x22d0fdabd92b6bca3a0f541730f9a81a8b1a36570 ETH0.00000253 0.01
0x9f4f1017aa37e932b79aa44a2515ed86755252f56cb2063fab15aba14a26a8cbSwap Exact Input...2229216142024-06-17 20:45:4510 hrs 19 mins ago0x1d56556f643bc2b3591046ab87ff852e76e75587OUT 0x22d0fdabd92b6bca3a0f541730f9a81a8b1a36570 ETH0.00000269 0.01
0x54680d8b622f9cfd8fa75f9a62fc2caa8149a4226e0f0e52b79c0ff65f6b91b6Swap Exact Input...2229057682024-06-17 19:39:3011 hrs 25 mins ago0x1d56556f643bc2b3591046ab87ff852e76e75587OUT 0x22d0fdabd92b6bca3a0f541730f9a81a8b1a36570 ETH0.00000307 0.01
0x8a00927e383d9c11622ce7a43533b269f913197d0b6c3af5787e7ff88bdc4365Swap Exact Input...2228899002024-06-17 18:33:1512 hrs 31 mins ago0x1d56556f643bc2b3591046ab87ff852e76e75587OUT 0x22d0fdabd92b6bca3a0f541730f9a81a8b1a36570 ETH0.00000544 0.01
0x551a9f98fae1280c0536b2297a9d75f33fa45ca4adf35b55c10946ca4baeb8e6Swap Exact Input...2228741022024-06-17 17:27:0013 hrs 38 mins ago0x1d56556f643bc2b3591046ab87ff852e76e75587OUT 0x22d0fdabd92b6bca3a0f541730f9a81a8b1a36570 ETH0.00000397 0.01
0x3aa7dea9aa9daa223caed14deacb59484308736b0a6e0ee3f37a653c2fd1c8a2Swap Exact Input...2228583892024-06-17 16:20:4514 hrs 44 mins ago0x1d56556f643bc2b3591046ab87ff852e76e75587OUT 0x22d0fdabd92b6bca3a0f541730f9a81a8b1a36570 ETH0.00002329 0.110657
0xe0ef80983c1cb98b7b1ec30980344a503af3c64fb2e4888bf94e4b24cb72a49bSwap Exact Input...2228425852024-06-17 15:14:3215 hrs 50 mins ago0x1d56556f643bc2b3591046ab87ff852e76e75587OUT 0x22d0fdabd92b6bca3a0f541730f9a81a8b1a36570 ETH0.00000365 0.010073
0xe78f218c91244c0f08714d69bb96ff1f0e94cbb88e9905f7b1d4ed8e03aac568Swap Exact Input...2228267532024-06-17 14:08:1516 hrs 56 mins ago0x1d56556f643bc2b3591046ab87ff852e76e75587OUT 0x22d0fdabd92b6bca3a0f541730f9a81a8b1a36570 ETH0.00000306 0.01
0xfd4fc551f5bed4d524fc806d4adbb38ef2cc4e7ab0e93700926bda3807061f3cSwap Exact Input...2224049332024-06-16 8:48:481 day 22 hrs ago0x1d56556f643bc2b3591046ab87ff852e76e75587OUT 0x22d0fdabd92b6bca3a0f541730f9a81a8b1a36570 ETH0.00000228 0.01
0xe7a208cac548962d5b0e62f8b9c9bdb9395e827dd5f9cbe2fe0a847f34bbdee1Swap Exact Input...2223887802024-06-16 7:41:431 day 23 hrs ago0x1d56556f643bc2b3591046ab87ff852e76e75587OUT 0x22d0fdabd92b6bca3a0f541730f9a81a8b1a36570 ETH0.00000229 0.01
0x3a48441eaaca8407c29bcd29932675668399e324ff8e718b2f273b052282ce0aSwap Exact Input...2223728642024-06-16 6:35:292 days 29 mins ago0x1d56556f643bc2b3591046ab87ff852e76e75587OUT 0x22d0fdabd92b6bca3a0f541730f9a81a8b1a36570 ETH0.00000225 0.01
0x7065dcc693583bbea559cc8a86621e7786ca3ff855a2145da190bd6c07822056Swap Exact Input...2223569552024-06-16 5:29:152 days 1 hr ago0x1d56556f643bc2b3591046ab87ff852e76e75587OUT 0x22d0fdabd92b6bca3a0f541730f9a81a8b1a36570 ETH0.0000022 0.01
0xfd6aa551032bde1fa63c5c0eb92d18746dd2fe0b30a99ed1d8a1612daf71d8e4Swap Exact Input...2223410252024-06-16 4:22:582 days 2 hrs ago0x1d56556f643bc2b3591046ab87ff852e76e75587OUT 0x22d0fdabd92b6bca3a0f541730f9a81a8b1a36570 ETH0.0000022 0.01
0x096c1a85949331058e8d83a39dfee157a2e14b9bfcc194b1ae0d858e7b6fbec1Swap Exact Input...2217294562024-06-14 9:55:133 days 21 hrs ago0x1d56556f643bc2b3591046ab87ff852e76e75587OUT 0x22d0fdabd92b6bca3a0f541730f9a81a8b1a36570 ETH0.00000265 0.01
0x24e9f61150e67c93dd82d660eb7ca119fa6ec5847b6866b89bbb6c43fc69ccc9Swap Exact Input...2217135212024-06-14 8:48:553 days 22 hrs ago0x1d56556f643bc2b3591046ab87ff852e76e75587OUT 0x22d0fdabd92b6bca3a0f541730f9a81a8b1a36570 ETH0.00000268 0.01
0x90d991872a43b9b5ce4e736254c68fd89dabb124a3f0054b84e1b0f0fbb7617eSwap Exact Input...2202502982024-06-10 3:13:348 days 3 hrs ago0x1d56556f643bc2b3591046ab87ff852e76e75587OUT 0x22d0fdabd92b6bca3a0f541730f9a81a8b1a36570 ETH0.00000223 0.01
0x61b6dc4c5b4cc2d478e528894be55a4e145b5108487f2975df7191d350d2ee99Swap Exact Input...2192664092024-06-07 6:43:4811 days 21 mins ago0x1d56556f643bc2b3591046ab87ff852e76e75587OUT 0x22d0fdabd92b6bca3a0f541730f9a81a8b1a36570 ETH0.00000295 0.01
0x17e022d6399fa5187d98449715f58b6862e6abc23fcfacaaa1e4216654661fbeSwap Exact Input...2192505132024-06-07 5:37:3211 days 1 hr ago0x1d56556f643bc2b3591046ab87ff852e76e75587OUT 0x22d0fdabd92b6bca3a0f541730f9a81a8b1a36570 ETH0.00000279 0.01
0xc54924640a45fb3113402647fffd78ad23ad0cc4bde756b81ba1572da01b4c36Swap Exact Input...2192346492024-06-07 4:31:1811 days 2 hrs ago0x1d56556f643bc2b3591046ab87ff852e76e75587OUT 0x22d0fdabd92b6bca3a0f541730f9a81a8b1a36570 ETH0.00000264 0.01
0x75c337215c0dc288ad55568952225db5447f576de7a2059656332fcd39698b9aSwap Exact Input...2192187852024-06-07 3:25:0211 days 3 hrs ago0x1d56556f643bc2b3591046ab87ff852e76e75587OUT 0x22d0fdabd92b6bca3a0f541730f9a81a8b1a36570 ETH0.00000277 0.01
0xff7105c9446b69c22f0950e638fb45507317d651010f1faa9b867fcf748900e1Swap Exact Input...2192029122024-06-07 2:18:4911 days 4 hrs ago0x1d56556f643bc2b3591046ab87ff852e76e75587OUT 0x22d0fdabd92b6bca3a0f541730f9a81a8b1a36570 ETH0.00000276 0.01
[ Download CSV Export 
Latest 3 internal transactions
Parent Txn Hash Block From To Value
0xb2cdc859269367da82d4d02d5c438f8de11fd2cde4b4038cdf56b6aa846b18031778611522024-02-06 1:44:11133 days 5 hrs ago Wrapped Ether0x1d56556f643bc2b3591046ab87ff852e76e755870.256033098549791871 ETH
0xf818e9e1ae9fa9fa7e5c4eea866bb5fdf51e18b0593f107619505687fd75e43c1713254812024-01-17 10:58:25152 days 20 hrs ago Uniswap: Universal Router V1 20x1d56556f643bc2b3591046ab87ff852e76e755870.011736561502632031 ETH
0x0b4a3acea7f57bfdffa63e330be741c40d76da53a9737bab920c410035e53d6a1418811482023-10-19 3:36:45243 days 3 hrs ago Wrapped Ether0x1d56556f643bc2b3591046ab87ff852e76e755870.358549929857890013 ETH
[ Download CSV Export 
Loading

Contract Name:
0 ETH

Compiler Version
0

Optimization Enabled:
0 ETH

Other Settings:
-NA-
Block Transaction Gas Used Reward
Age Block Fee Address BC Fee Address Voting Power Jailed Incoming
Block Uncle Number Difficulty Gas Used Reward
Loading
Make sure to use the "Vote Down" button for any spammy posts, and the "Vote Up" for interesting conversations.